sensor_id;sensor_type;location;lat;lon;timestamp;P1;durP1;ratioP1;P2;durP2;ratioP2
75456;SDS011;64036;48.266;14.192;2023-08-31T00:00:45;5.40;;;4.20;;
75456;SDS011;64036;48.266;14.192;2023-08-31T00:03:12;5.20;;;3.80;;
75456;SDS011;64036;48.266;14.192;2023-08-31T00:05:40;5.50;;;4.00;;
75456;SDS011;64036;48.266;14.192;2023-08-31T00:08:07;5.80;;;3.90;;
75456;SDS011;64036;48.266;14.192;2023-08-31T00:10:34;5.30;;;3.90;;
75456;SDS011;64036;48.266;14.192;2023-08-31T00:13:04;5.40;;;4.00;;
75456;SDS011;64036;48.266;14.192;2023-08-31T00:15:32;9.60;;;5.20;;
75456;SDS011;64036;48.266;14.192;2023-08-31T00:18:02;5.30;;;4.00;;
75456;SDS011;64036;48.266;14.192;2023-08-31T00:20:31;7.50;;;4.80;;
75456;SDS011;64036;48.266;14.192;2023-08-31T00:22:59;6.50;;;4.60;;
75456;SDS011;64036;48.266;14.192;2023-08-31T00:25:25;6.10;;;4.60;;
75456;SDS011;64036;48.266;14.192;2023-08-31T00:27:51;5.70;;;4.20;;
75456;SDS011;64036;48.266;14.192;2023-08-31T00:30:19;6.20;;;3.90;;
75456;SDS011;64036;48.266;14.192;2023-08-31T00:32:45;5.70;;;4.40;;
75456;SDS011;64036;48.266;14.192;2023-08-31T00:35:12;5.70;;;4.40;;
75456;SDS011;64036;48.266;14.192;2023-08-31T00:37:38;6.60;;;4.60;;
75456;SDS011;64036;48.266;14.192;2023-08-31T00:40:05;6.70;;;5.10;;
75456;SDS011;64036;48.266;14.192;2023-08-31T00:42:32;6.80;;;5.10;;
75456;SDS011;64036;48.266;14.192;2023-08-31T00:44:58;7.40;;;4.90;;
75456;SDS011;64036;48.266;14.192;2023-08-31T00:47:23;7.10;;;5.00;;
75456;SDS011;64036;48.266;14.192;2023-08-31T00:49:49;7.50;;;5.50;;
75456;SDS011;64036;48.266;14.192;2023-08-31T00:52:16;10.10;;;5.80;;
75456;SDS011;64036;48.266;14.192;2023-08-31T00:54:42;7.30;;;5.70;;
75456;SDS011;64036;48.266;14.192;2023-08-31T00:57:08;7.40;;;5.10;;
75456;SDS011;64036;48.266;14.192;2023-08-31T00:59:34;6.90;;;5.30;;
75456;SDS011;64036;48.266;14.192;2023-08-31T01:02:19;8.40;;;5.20;;
75456;SDS011;64036;48.266;14.192;2023-08-31T01:05:13;7.10;;;5.40;;
75456;SDS011;64036;48.266;14.192;2023-08-31T01:08:14;8.80;;;5.40;;
75456;SDS011;64036;48.266;14.192;2023-08-31T01:11:16;8.10;;;5.40;;
75456;SDS011;64036;48.266;14.192;2023-08-31T01:14:01;8.20;;;5.80;;
75456;SDS011;64036;48.266;14.192;2023-08-31T01:16:32;7.90;;;5.70;;
75456;SDS011;64036;48.266;14.192;2023-08-31T01:19:12;8.10;;;5.20;;
75456;SDS011;64036;48.266;14.192;2023-08-31T01:22:00;9.10;;;6.00;;
75456;SDS011;64036;48.266;14.192;2023-08-31T01:24:29;9.30;;;6.50;;
75456;SDS011;64036;48.266;14.192;2023-08-31T01:26:57;10.10;;;6.60;;
75456;SDS011;64036;48.266;14.192;2023-08-31T01:29:23;8.80;;;5.80;;
75456;SDS011;64036;48.266;14.192;2023-08-31T01:31:48;7.70;;;5.70;;
75456;SDS011;64036;48.266;14.192;2023-08-31T01:34:14;8.00;;;6.00;;
75456;SDS011;64036;48.266;14.192;2023-08-31T01:36:44;7.40;;;5.80;;
75456;SDS011;64036;48.266;14.192;2023-08-31T01:39:52;8.30;;;5.90;;
75456;SDS011;64036;48.266;14.192;2023-08-31T01:42:43;7.20;;;5.60;;
75456;SDS011;64036;48.266;14.192;2023-08-31T01:45:14;8.10;;;5.80;;
75456;SDS011;64036;48.266;14.192;2023-08-31T01:47:42;7.60;;;5.80;;
75456;SDS011;64036;48.266;14.192;2023-08-31T01:50:08;9.80;;;5.80;;
75456;SDS011;64036;48.266;14.192;2023-08-31T01:52:34;10.80;;;6.10;;
75456;SDS011;64036;48.266;14.192;2023-08-31T01:55:00;8.00;;;6.20;;
75456;SDS011;64036;48.266;14.192;2023-08-31T01:57:25;8.80;;;6.60;;
75456;SDS011;64036;48.266;14.192;2023-08-31T01:59:51;8.20;;;6.40;;
75456;SDS011;64036;48.266;14.192;2023-08-31T02:02:17;7.60;;;6.30;;
75456;SDS011;64036;48.266;14.192;2023-08-31T02:04:43;8.30;;;5.90;;
75456;SDS011;64036;48.266;14.192;2023-08-31T02:07:09;10.20;;;5.90;;
75456;SDS011;64036;48.266;14.192;2023-08-31T02:09:34;9.70;;;6.30;;
75456;SDS011;64036;48.266;14.192;2023-08-31T02:12:00;7.70;;;6.10;;
75456;SDS011;64036;48.266;14.192;2023-08-31T02:14:26;7.00;;;5.10;;
75456;SDS011;64036;48.266;14.192;2023-08-31T02:16:52;7.70;;;6.00;;
75456;SDS011;64036;48.266;14.192;2023-08-31T02:19:17;8.30;;;6.00;;
75456;SDS011;64036;48.266;14.192;2023-08-31T02:21:43;8.70;;;6.50;;
75456;SDS011;64036;48.266;14.192;2023-08-31T02:24:09;7.30;;;5.10;;
75456;SDS011;64036;48.266;14.192;2023-08-31T02:26:37;7.20;;;5.60;;
75456;SDS011;64036;48.266;14.192;2023-08-31T02:29:03;6.90;;;5.60;;
75456;SDS011;64036;48.266;14.192;2023-08-31T02:31:29;9.20;;;5.80;;
75456;SDS011;64036;48.266;14.192;2023-08-31T02:33:55;7.50;;;5.70;;
75456;SDS011;64036;48.266;14.192;2023-08-31T02:36:20;8.10;;;5.60;;
75456;SDS011;64036;48.266;14.192;2023-08-31T02:38:46;8.30;;;5.40;;
75456;SDS011;64036;48.266;14.192;2023-08-31T02:41:12;8.80;;;5.50;;
75456;SDS011;64036;48.266;14.192;2023-08-31T02:43:38;8.20;;;5.80;;
75456;SDS011;64036;48.266;14.192;2023-08-31T02:46:05;8.40;;;5.50;;
75456;SDS011;64036;48.266;14.192;2023-08-31T02:48:32;7.10;;;5.40;;
75456;SDS011;64036;48.266;14.192;2023-08-31T02:50:58;8.50;;;5.50;;
75456;SDS011;64036;48.266;14.192;2023-08-31T02:53:27;8.50;;;5.60;;
75456;SDS011;64036;48.266;14.192;2023-08-31T02:55:53;8.10;;;5.50;;
75456;SDS011;64036;48.266;14.192;2023-08-31T02:58:18;6.60;;;4.80;;
75456;SDS011;64036;48.266;14.192;2023-08-31T03:00:45;7.60;;;4.60;;
75456;SDS011;64036;48.266;14.192;2023-08-31T03:03:15;6.30;;;4.80;;
75456;SDS011;64036;48.266;14.192;2023-08-31T03:05:41;6.50;;;4.80;;
75456;SDS011;64036;48.266;14.192;2023-08-31T03:08:06;8.70;;;5.00;;
75456;SDS011;64036;48.266;14.192;2023-08-31T03:10:32;7.00;;;4.90;;
75456;SDS011;64036;48.266;14.192;2023-08-31T03:12:58;8.00;;;5.40;;
75456;SDS011;64036;48.266;14.192;2023-08-31T03:15:23;7.00;;;5.00;;
75456;SDS011;64036;48.266;14.192;2023-08-31T03:17:49;6.50;;;5.00;;
75456;SDS011;64036;48.266;14.192;2023-08-31T03:20:15;6.90;;;5.30;;
75456;SDS011;64036;48.266;14.192;2023-08-31T03:22:40;7.60;;;5.20;;
75456;SDS011;64036;48.266;14.192;2023-08-31T03:25:07;8.60;;;5.00;;
75456;SDS011;64036;48.266;14.192;2023-08-31T03:27:33;7.50;;;5.20;;
75456;SDS011;64036;48.266;14.192;2023-08-31T03:29:59;8.80;;;4.90;;
75456;SDS011;64036;48.266;14.192;2023-08-31T03:32:24;6.90;;;5.00;;
75456;SDS011;64036;48.266;14.192;2023-08-31T03:34:50;7.00;;;5.00;;
75456;SDS011;64036;48.266;14.192;2023-08-31T03:37:16;7.30;;;5.20;;
75456;SDS011;64036;48.266;14.192;2023-08-31T03:39:42;9.00;;;5.60;;
75456;SDS011;64036;48.266;14.192;2023-08-31T03:42:09;6.90;;;5.50;;
75456;SDS011;64036;48.266;14.192;2023-08-31T03:44:35;7.00;;;5.30;;
75456;SDS011;64036;48.266;14.192;2023-08-31T03:47:02;10.70;;;5.90;;
75456;SDS011;64036;48.266;14.192;2023-08-31T03:49:28;7.20;;;5.20;;
75456;SDS011;64036;48.266;14.192;2023-08-31T03:51:55;7.10;;;5.20;;
75456;SDS011;64036;48.266;14.192;2023-08-31T03:54:20;9.40;;;5.50;;
75456;SDS011;64036;48.266;14.192;2023-08-31T03:56:46;7.60;;;5.70;;
75456;SDS011;64036;48.266;14.192;2023-08-31T03:59:12;7.60;;;5.60;;
75456;SDS011;64036;48.266;14.192;2023-08-31T04:01:38;11.00;;;6.10;;
75456;SDS011;64036;48.266;14.192;2023-08-31T04:04:04;11.60;;;6.30;;
75456;SDS011;64036;48.266;14.192;2023-08-31T04:06:30;7.70;;;5.50;;
75456;SDS011;64036;48.266;14.192;2023-08-31T04:08:56;7.90;;;5.40;;
75456;SDS011;64036;48.266;14.192;2023-08-31T04:11:22;9.20;;;5.10;;
75456;SDS011;64036;48.266;14.192;2023-08-31T04:13:47;7.00;;;5.10;;
75456;SDS011;64036;48.266;14.192;2023-08-31T04:16:13;9.00;;;5.60;;
75456;SDS011;64036;48.266;14.192;2023-08-31T04:18:39;9.30;;;5.60;;
75456;SDS011;64036;48.266;14.192;2023-08-31T04:21:05;6.30;;;4.70;;
75456;SDS011;64036;48.266;14.192;2023-08-31T04:23:31;7.00;;;4.50;;
75456;SDS011;64036;48.266;14.192;2023-08-31T04:25:57;6.30;;;4.30;;
75456;SDS011;64036;48.266;14.192;2023-08-31T04:28:24;10.50;;;5.10;;
75456;SDS011;64036;48.266;14.192;2023-08-31T04:30:49;6.90;;;5.10;;
75456;SDS011;64036;48.266;14.192;2023-08-31T04:33:15;7.10;;;5.40;;
75456;SDS011;64036;48.266;14.192;2023-08-31T04:35:41;8.10;;;4.90;;
75456;SDS011;64036;48.266;14.192;2023-08-31T04:38:07;7.00;;;4.70;;
75456;SDS011;64036;48.266;14.192;2023-08-31T04:40:33;8.00;;;5.20;;
75456;SDS011;64036;48.266;14.192;2023-08-31T04:42:59;5.60;;;4.20;;
75456;SDS011;64036;48.266;14.192;2023-08-31T04:45:25;7.30;;;5.00;;
75456;SDS011;64036;48.266;14.192;2023-08-31T04:47:51;7.70;;;5.10;;
75456;SDS011;64036;48.266;14.192;2023-08-31T04:50:17;6.50;;;4.40;;
75456;SDS011;64036;48.266;14.192;2023-08-31T04:52:43;9.10;;;4.10;;
75456;SDS011;64036;48.266;14.192;2023-08-31T04:55:09;7.70;;;5.40;;
75456;SDS011;64036;48.266;14.192;2023-08-31T04:57:37;5.80;;;4.00;;
75456;SDS011;64036;48.266;14.192;2023-08-31T05:00:03;5.80;;;4.10;;
75456;SDS011;64036;48.266;14.192;2023-08-31T05:02:33;7.70;;;4.00;;
75456;SDS011;64036;48.266;14.192;2023-08-31T05:04:58;6.50;;;4.80;;
75456;SDS011;64036;48.266;14.192;2023-08-31T05:07:24;5.30;;;4.00;;
75456;SDS011;64036;48.266;14.192;2023-08-31T05:09:49;5.20;;;4.00;;
75456;SDS011;64036;48.266;14.192;2023-08-31T05:12:15;4.10;;;3.10;;
75456;SDS011;64036;48.266;14.192;2023-08-31T05:14:43;5.10;;;2.60;;
75456;SDS011;64036;48.266;14.192;2023-08-31T05:17:08;4.30;;;3.10;;
75456;SDS011;64036;48.266;14.192;2023-08-31T05:19:34;4.40;;;3.20;;
75456;SDS011;64036;48.266;14.192;2023-08-31T05:22:00;3.80;;;2.90;;
75456;SDS011;64036;48.266;14.192;2023-08-31T05:24:27;3.50;;;2.70;;
75456;SDS011;64036;48.266;14.192;2023-08-31T05:26:52;4.60;;;3.30;;
75456;SDS011;64036;48.266;14.192;2023-08-31T05:29:18;6.10;;;3.50;;
75456;SDS011;64036;48.266;14.192;2023-08-31T05:31:43;4.80;;;3.70;;
75456;SDS011;64036;48.266;14.192;2023-08-31T05:34:10;4.60;;;3.50;;
75456;SDS011;64036;48.266;14.192;2023-08-31T05:36:36;5.50;;;3.70;;
75456;SDS011;64036;48.266;14.192;2023-08-31T05:39:02;5.40;;;4.30;;
75456;SDS011;64036;48.266;14.192;2023-08-31T05:41:28;5.70;;;4.60;;
75456;SDS011;64036;48.266;14.192;2023-08-31T05:43:54;5.50;;;3.80;;
75456;SDS011;64036;48.266;14.192;2023-08-31T05:46:19;5.20;;;3.60;;
75456;SDS011;64036;48.266;14.192;2023-08-31T05:48:45;4.50;;;3.30;;
75456;SDS011;64036;48.266;14.192;2023-08-31T05:51:11;5.40;;;3.70;;
75456;SDS011;64036;48.266;14.192;2023-08-31T05:53:36;5.60;;;3.80;;
75456;SDS011;64036;48.266;14.192;2023-08-31T05:56:03;6.20;;;3.90;;
75456;SDS011;64036;48.266;14.192;2023-08-31T05:58:34;6.30;;;4.20;;
75456;SDS011;64036;48.266;14.192;2023-08-31T06:01:04;4.70;;;3.50;;
75456;SDS011;64036;48.266;14.192;2023-08-31T06:03:30;5.40;;;3.60;;
75456;SDS011;64036;48.266;14.192;2023-08-31T06:05:57;5.00;;;3.70;;
75456;SDS011;64036;48.266;14.192;2023-08-31T06:08:23;5.20;;;4.00;;
75456;SDS011;64036;48.266;14.192;2023-08-31T06:10:50;5.60;;;4.20;;
75456;SDS011;64036;48.266;14.192;2023-08-31T06:13:15;5.60;;;4.30;;
75456;SDS011;64036;48.266;14.192;2023-08-31T06:15:41;6.00;;;3.50;;
75456;SDS011;64036;48.266;14.192;2023-08-31T06:18:07;4.80;;;3.60;;
75456;SDS011;64036;48.266;14.192;2023-08-31T06:20:33;4.50;;;3.40;;
75456;SDS011;64036;48.266;14.192;2023-08-31T06:23:02;4.90;;;3.70;;
75456;SDS011;64036;48.266;14.192;2023-08-31T06:25:28;4.50;;;3.30;;
75456;SDS011;64036;48.266;14.192;2023-08-31T06:27:54;4.60;;;3.50;;
75456;SDS011;64036;48.266;14.192;2023-08-31T06:30:19;5.10;;;3.60;;
75456;SDS011;64036;48.266;14.192;2023-08-31T06:32:46;4.50;;;3.20;;
75456;SDS011;64036;48.266;14.192;2023-08-31T06:35:13;3.60;;;2.80;;
75456;SDS011;64036;48.266;14.192;2023-08-31T06:37:42;3.80;;;2.80;;
75456;SDS011;64036;48.266;14.192;2023-08-31T06:40:09;4.20;;;2.60;;
75456;SDS011;64036;48.266;14.192;2023-08-31T06:42:39;4.00;;;2.60;;
75456;SDS011;64036;48.266;14.192;2023-08-31T06:45:06;3.50;;;2.40;;
75456;SDS011;64036;48.266;14.192;2023-08-31T06:47:32;3.20;;;2.30;;
75456;SDS011;64036;48.266;14.192;2023-08-31T06:49:59;5.10;;;2.50;;
75456;SDS011;64036;48.266;14.192;2023-08-31T06:52:28;2.30;;;1.90;;
75456;SDS011;64036;48.266;14.192;2023-08-31T06:54:53;3.50;;;2.30;;
75456;SDS011;64036;48.266;14.192;2023-08-31T06:57:26;4.00;;;2.50;;
75456;SDS011;64036;48.266;14.192;2023-08-31T06:59:54;2.60;;;2.00;;
75456;SDS011;64036;48.266;14.192;2023-08-31T07:02:25;2.60;;;2.00;;
75456;SDS011;64036;48.266;14.192;2023-08-31T07:04:51;1.80;;;1.60;;
75456;SDS011;64036;48.266;14.192;2023-08-31T07:07:18;3.80;;;1.80;;
75456;SDS011;64036;48.266;14.192;2023-08-31T07:09:45;2.40;;;1.80;;
75456;SDS011;64036;48.266;14.192;2023-08-31T07:12:11;1.90;;;1.40;;
75456;SDS011;64036;48.266;14.192;2023-08-31T07:14:37;3.40;;;1.80;;
75456;SDS011;64036;48.266;14.192;2023-08-31T07:17:03;2.50;;;1.60;;
75456;SDS011;64036;48.266;14.192;2023-08-31T07:19:29;2.20;;;1.40;;
75456;SDS011;64036;48.266;14.192;2023-08-31T07:21:55;3.10;;;1.40;;
75456;SDS011;64036;48.266;14.192;2023-08-31T07:24:22;1.90;;;1.50;;
75456;SDS011;64036;48.266;14.192;2023-08-31T07:26:48;3.30;;;1.40;;
75456;SDS011;64036;48.266;14.192;2023-08-31T07:29:14;3.40;;;1.50;;
75456;SDS011;64036;48.266;14.192;2023-08-31T07:31:39;1.80;;;1.20;;
75456;SDS011;64036;48.266;14.192;2023-08-31T07:34:05;1.90;;;1.20;;
75456;SDS011;64036;48.266;14.192;2023-08-31T07:36:31;2.00;;;1.20;;
75456;SDS011;64036;48.266;14.192;2023-08-31T07:38:56;1.50;;;1.30;;
75456;SDS011;64036;48.266;14.192;2023-08-31T07:41:23;2.20;;;1.20;;
75456;SDS011;64036;48.266;14.192;2023-08-31T07:43:48;2.20;;;1.10;;
75456;SDS011;64036;48.266;14.192;2023-08-31T07:46:15;1.70;;;1.30;;
75456;SDS011;64036;48.266;14.192;2023-08-31T07:48:42;1.10;;;1.00;;
75456;SDS011;64036;48.266;14.192;2023-08-31T07:51:07;0.90;;;0.90;;
75456;SDS011;64036;48.266;14.192;2023-08-31T07:53:33;1.20;;;1.00;;
75456;SDS011;64036;48.266;14.192;2023-08-31T07:55:59;1.80;;;0.90;;
75456;SDS011;64036;48.266;14.192;2023-08-31T07:58:25;1.10;;;1.00;;
75456;SDS011;64036;48.266;14.192;2023-08-31T08:00:57;1.10;;;0.80;;
75456;SDS011;64036;48.266;14.192;2023-08-31T08:03:23;1.00;;;0.80;;
75456;SDS011;64036;48.266;14.192;2023-08-31T08:05:49;1.00;;;0.90;;
75456;SDS011;64036;48.266;14.192;2023-08-31T08:08:15;4.00;;;1.40;;
75456;SDS011;64036;48.266;14.192;2023-08-31T08:10:41;2.90;;;1.20;;
75456;SDS011;64036;48.266;14.192;2023-08-31T08:13:08;1.30;;;1.20;;
75456;SDS011;64036;48.266;14.192;2023-08-31T08:15:34;1.30;;;1.10;;
75456;SDS011;64036;48.266;14.192;2023-08-31T08:18:00;1.60;;;1.20;;
75456;SDS011;64036;48.266;14.192;2023-08-31T08:20:27;1.90;;;1.20;;
75456;SDS011;64036;48.266;14.192;2023-08-31T08:22:53;2.30;;;1.20;;
75456;SDS011;64036;48.266;14.192;2023-08-31T08:25:19;2.60;;;1.50;;
75456;SDS011;64036;48.266;14.192;2023-08-31T08:27:46;2.40;;;1.20;;
75456;SDS011;64036;48.266;14.192;2023-08-31T08:30:13;1.70;;;1.20;;
75456;SDS011;64036;48.266;14.192;2023-08-31T08:32:41;2.50;;;1.50;;
75456;SDS011;64036;48.266;14.192;2023-08-31T08:35:07;2.00;;;1.40;;
75456;SDS011;64036;48.266;14.192;2023-08-31T08:37:33;1.60;;;1.30;;
75456;SDS011;64036;48.266;14.192;2023-08-31T08:40:00;2.70;;;1.30;;
75456;SDS011;64036;48.266;14.192;2023-08-31T08:42:29;2.30;;;1.60;;
75456;SDS011;64036;48.266;14.192;2023-08-31T08:44:57;1.70;;;1.50;;
75456;SDS011;64036;48.266;14.192;2023-08-31T08:47:25;2.20;;;1.50;;
75456;SDS011;64036;48.266;14.192;2023-08-31T08:49:53;2.30;;;1.30;;
75456;SDS011;64036;48.266;14.192;2023-08-31T08:52:21;3.40;;;1.70;;
75456;SDS011;64036;48.266;14.192;2023-08-31T08:54:48;3.00;;;1.50;;
75456;SDS011;64036;48.266;14.192;2023-08-31T08:57:15;1.60;;;1.40;;
75456;SDS011;64036;48.266;14.192;2023-08-31T08:59:40;2.90;;;1.60;;
75456;SDS011;64036;48.266;14.192;2023-08-31T09:02:08;3.20;;;1.70;;
75456;SDS011;64036;48.266;14.192;2023-08-31T09:04:36;1.60;;;1.40;;
75456;SDS011;64036;48.266;14.192;2023-08-31T09:07:01;2.50;;;1.60;;
75456;SDS011;64036;48.266;14.192;2023-08-31T09:09:27;2.30;;;1.50;;
75456;SDS011;64036;48.266;14.192;2023-08-31T09:11:53;2.90;;;1.50;;
75456;SDS011;64036;48.266;14.192;2023-08-31T09:14:21;2.10;;;1.50;;
75456;SDS011;64036;48.266;14.192;2023-08-31T09:16:49;2.50;;;1.50;;
75456;SDS011;64036;48.266;14.192;2023-08-31T09:19:22;2.40;;;1.60;;
75456;SDS011;64036;48.266;14.192;2023-08-31T09:21:50;2.90;;;1.50;;
75456;SDS011;64036;48.266;14.192;2023-08-31T09:24:16;2.20;;;1.50;;
75456;SDS011;64036;48.266;14.192;2023-08-31T09:27:03;1.90;;;1.50;;
75456;SDS011;64036;48.266;14.192;2023-08-31T09:29:31;2.40;;;1.70;;
75456;SDS011;64036;48.266;14.192;2023-08-31T09:31:57;2.50;;;1.50;;
75456;SDS011;64036;48.266;14.192;2023-08-31T09:34:32;2.90;;;1.60;;
75456;SDS011;64036;48.266;14.192;2023-08-31T09:37:04;3.30;;;1.80;;
75456;SDS011;64036;48.266;14.192;2023-08-31T09:39:41;2.30;;;1.70;;
75456;SDS011;64036;48.266;14.192;2023-08-31T09:42:07;3.40;;;1.80;;
75456;SDS011;64036;48.266;14.192;2023-08-31T09:44:33;2.50;;;1.60;;
75456;SDS011;64036;48.266;14.192;2023-08-31T09:46:59;3.10;;;1.70;;
75456;SDS011;64036;48.266;14.192;2023-08-31T09:49:26;2.90;;;1.50;;
75456;SDS011;64036;48.266;14.192;2023-08-31T09:51:52;2.10;;;1.60;;
75456;SDS011;64036;48.266;14.192;2023-08-31T09:54:20;2.20;;;1.50;;
75456;SDS011;64036;48.266;14.192;2023-08-31T09:56:48;2.10;;;1.50;;
75456;SDS011;64036;48.266;14.192;2023-08-31T09:59:15;3.40;;;1.80;;
75456;SDS011;64036;48.266;14.192;2023-08-31T10:01:44;4.40;;;1.80;;
75456;SDS011;64036;48.266;14.192;2023-08-31T10:04:11;3.40;;;1.30;;
75456;SDS011;64036;48.266;14.192;2023-08-31T10:06:42;2.70;;;1.60;;
75456;SDS011;64036;48.266;14.192;2023-08-31T10:09:09;3.40;;;1.60;;
75456;SDS011;64036;48.266;14.192;2023-08-31T10:11:38;3.20;;;1.80;;
75456;SDS011;64036;48.266;14.192;2023-08-31T10:14:05;3.40;;;1.80;;
75456;SDS011;64036;48.266;14.192;2023-08-31T10:16:32;2.90;;;1.70;;
75456;SDS011;64036;48.266;14.192;2023-08-31T10:18:58;2.70;;;1.70;;
75456;SDS011;64036;48.266;14.192;2023-08-31T10:21:24;2.60;;;1.70;;
75456;SDS011;64036;48.266;14.192;2023-08-31T10:23:50;3.80;;;1.80;;
75456;SDS011;64036;48.266;14.192;2023-08-31T10:26:27;2.50;;;1.50;;
75456;SDS011;64036;48.266;14.192;2023-08-31T10:28:54;4.10;;;1.80;;
75456;SDS011;64036;48.266;14.192;2023-08-31T10:31:22;3.10;;;1.70;;
75456;SDS011;64036;48.266;14.192;2023-08-31T10:34:04;3.80;;;1.60;;
75456;SDS011;64036;48.266;14.192;2023-08-31T10:36:44;2.60;;;1.50;;
75456;SDS011;64036;48.266;14.192;2023-08-31T10:39:12;3.10;;;1.60;;
75456;SDS011;64036;48.266;14.192;2023-08-31T10:41:44;4.20;;;1.70;;
75456;SDS011;64036;48.266;14.192;2023-08-31T10:44:25;3.60;;;1.90;;
75456;SDS011;64036;48.266;14.192;2023-08-31T10:46:53;2.80;;;1.60;;
75456;SDS011;64036;48.266;14.192;2023-08-31T10:49:23;2.50;;;1.60;;
75456;SDS011;64036;48.266;14.192;2023-08-31T10:52:16;5.10;;;2.00;;
75456;SDS011;64036;48.266;14.192;2023-08-31T10:54:43;3.10;;;1.50;;
75456;SDS011;64036;48.266;14.192;2023-08-31T10:57:09;2.80;;;1.50;;
75456;SDS011;64036;48.266;14.192;2023-08-31T10:59:48;3.70;;;1.50;;
75456;SDS011;64036;48.266;14.192;2023-08-31T11:02:36;2.90;;;1.60;;
75456;SDS011;64036;48.266;14.192;2023-08-31T11:07:47;5.60;;;1.70;;
75456;SDS011;64036;48.266;14.192;2023-08-31T11:10:18;3.60;;;1.80;;
75456;SDS011;64036;48.266;14.192;2023-08-31T11:12:54;5.30;;;1.80;;
75456;SDS011;64036;48.266;14.192;2023-08-31T11:15:24;3.40;;;1.60;;
75456;SDS011;64036;48.266;14.192;2023-08-31T11:17:55;5.60;;;1.80;;
75456;SDS011;64036;48.266;14.192;2023-08-31T11:20:22;2.70;;;1.60;;
75456;SDS011;64036;48.266;14.192;2023-08-31T11:22:53;3.10;;;1.90;;
75456;SDS011;64036;48.266;14.192;2023-08-31T11:25:19;3.60;;;1.50;;
75456;SDS011;64036;48.266;14.192;2023-08-31T11:27:58;2.50;;;1.50;;
75456;SDS011;64036;48.266;14.192;2023-08-31T11:30:26;4.20;;;1.80;;
75456;SDS011;64036;48.266;14.192;2023-08-31T11:32:53;2.70;;;1.60;;
75456;SDS011;64036;48.266;14.192;2023-08-31T11:35:20;4.70;;;1.70;;
75456;SDS011;64036;48.266;14.192;2023-08-31T11:37:51;3.10;;;1.50;;
75456;SDS011;64036;48.266;14.192;2023-08-31T11:40:18;4.00;;;1.50;;
75456;SDS011;64036;48.266;14.192;2023-08-31T11:42:44;2.30;;;1.50;;
75456;SDS011;64036;48.266;14.192;2023-08-31T11:45:11;3.60;;;1.60;;
75456;SDS011;64036;48.266;14.192;2023-08-31T11:47:38;3.60;;;1.70;;
75456;SDS011;64036;48.266;14.192;2023-08-31T11:50:05;2.50;;;1.50;;
75456;SDS011;64036;48.266;14.192;2023-08-31T11:52:32;3.20;;;1.60;;
75456;SDS011;64036;48.266;14.192;2023-08-31T11:54:58;3.50;;;1.60;;
75456;SDS011;64036;48.266;14.192;2023-08-31T11:57:25;3.00;;;1.60;;
75456;SDS011;64036;48.266;14.192;2023-08-31T11:59:52;3.80;;;1.80;;
75456;SDS011;64036;48.266;14.192;2023-08-31T12:02:20;3.00;;;1.70;;
75456;SDS011;64036;48.266;14.192;2023-08-31T12:04:46;4.30;;;1.40;;
75456;SDS011;64036;48.266;14.192;2023-08-31T12:07:21;3.10;;;1.50;;
75456;SDS011;64036;48.266;14.192;2023-08-31T12:09:47;3.80;;;1.80;;
75456;SDS011;64036;48.266;14.192;2023-08-31T12:12:14;3.00;;;1.40;;
75456;SDS011;64036;48.266;14.192;2023-08-31T12:14:41;3.00;;;1.50;;
75456;SDS011;64036;48.266;14.192;2023-08-31T12:17:08;3.70;;;1.90;;
75456;SDS011;64036;48.266;14.192;2023-08-31T12:19:38;4.70;;;1.50;;
75456;SDS011;64036;48.266;14.192;2023-08-31T12:22:05;2.80;;;1.40;;
75456;SDS011;64036;48.266;14.192;2023-08-31T12:24:39;4.50;;;1.60;;
75456;SDS011;64036;48.266;14.192;2023-08-31T12:27:07;3.20;;;1.80;;
75456;SDS011;64036;48.266;14.192;2023-08-31T12:29:33;2.70;;;1.60;;
75456;SDS011;64036;48.266;14.192;2023-08-31T12:31:59;3.10;;;1.40;;
75456;SDS011;64036;48.266;14.192;2023-08-31T12:34:26;2.70;;;1.40;;
75456;SDS011;64036;48.266;14.192;2023-08-31T12:36:51;3.60;;;1.50;;
75456;SDS011;64036;48.266;14.192;2023-08-31T12:39:18;2.30;;;1.20;;
75456;SDS011;64036;48.266;14.192;2023-08-31T12:41:44;5.80;;;2.00;;
75456;SDS011;64036;48.266;14.192;2023-08-31T12:44:10;3.60;;;1.50;;
75456;SDS011;64036;48.266;14.192;2023-08-31T12:46:35;2.90;;;1.30;;
75456;SDS011;64036;48.266;14.192;2023-08-31T12:49:02;5.30;;;1.70;;
75456;SDS011;64036;48.266;14.192;2023-08-31T12:51:31;3.50;;;1.60;;
75456;SDS011;64036;48.266;14.192;2023-08-31T12:53:57;3.00;;;1.60;;
75456;SDS011;64036;48.266;14.192;2023-08-31T12:56:23;3.80;;;1.60;;
75456;SDS011;64036;48.266;14.192;2023-08-31T12:58:53;4.20;;;1.60;;
75456;SDS011;64036;48.266;14.192;2023-08-31T13:01:21;3.60;;;1.60;;
75456;SDS011;64036;48.266;14.192;2023-08-31T13:03:48;2.60;;;1.40;;
75456;SDS011;64036;48.266;14.192;2023-08-31T13:06:14;3.60;;;1.70;;
75456;SDS011;64036;48.266;14.192;2023-08-31T13:08:42;2.20;;;1.30;;
75456;SDS011;64036;48.266;14.192;2023-08-31T13:11:10;2.90;;;1.50;;
75456;SDS011;64036;48.266;14.192;2023-08-31T13:13:38;3.00;;;1.60;;
75456;SDS011;64036;48.266;14.192;2023-08-31T13:16:04;2.20;;;1.60;;
75456;SDS011;64036;48.266;14.192;2023-08-31T13:18:29;3.50;;;1.70;;
75456;SDS011;64036;48.266;14.192;2023-08-31T13:20:55;2.70;;;1.40;;
75456;SDS011;64036;48.266;14.192;2023-08-31T13:23:21;1.90;;;1.50;;
75456;SDS011;64036;48.266;14.192;2023-08-31T13:25:48;4.40;;;1.70;;
75456;SDS011;64036;48.266;14.192;2023-08-31T13:28:15;4.10;;;1.80;;
75456;SDS011;64036;48.266;14.192;2023-08-31T13:30:41;6.40;;;2.30;;
75456;SDS011;64036;48.266;14.192;2023-08-31T13:33:08;3.60;;;1.60;;
75456;SDS011;64036;48.266;14.192;2023-08-31T13:35:34;3.30;;;1.70;;
75456;SDS011;64036;48.266;14.192;2023-08-31T13:38:01;4.10;;;1.50;;
75456;SDS011;64036;48.266;14.192;2023-08-31T13:40:28;2.30;;;1.50;;
75456;SDS011;64036;48.266;14.192;2023-08-31T13:42:59;3.10;;;1.70;;
75456;SDS011;64036;48.266;14.192;2023-08-31T13:45:31;4.70;;;1.70;;
75456;SDS011;64036;48.266;14.192;2023-08-31T13:47:58;3.60;;;1.50;;
75456;SDS011;64036;48.266;14.192;2023-08-31T13:50:26;4.80;;;2.00;;
75456;SDS011;64036;48.266;14.192;2023-08-31T13:52:53;4.00;;;1.80;;
75456;SDS011;64036;48.266;14.192;2023-08-31T13:55:18;3.30;;;1.60;;
75456;SDS011;64036;48.266;14.192;2023-08-31T13:57:44;3.20;;;1.50;;
75456;SDS011;64036;48.266;14.192;2023-08-31T14:00:11;2.60;;;1.40;;
75456;SDS011;64036;48.266;14.192;2023-08-31T14:02:38;4.80;;;1.80;;
75456;SDS011;64036;48.266;14.192;2023-08-31T14:05:07;3.50;;;1.50;;
75456;SDS011;64036;48.266;14.192;2023-08-31T14:10:02;4.40;;;1.70;;
75456;SDS011;64036;48.266;14.192;2023-08-31T14:12:31;3.70;;;1.30;;
75456;SDS011;64036;48.266;14.192;2023-08-31T14:14:57;3.50;;;1.70;;
75456;SDS011;64036;48.266;14.192;2023-08-31T14:17:23;3.70;;;1.50;;
75456;SDS011;64036;48.266;14.192;2023-08-31T14:19:49;3.70;;;1.60;;
75456;SDS011;64036;48.266;14.192;2023-08-31T14:22:15;2.80;;;1.60;;
75456;SDS011;64036;48.266;14.192;2023-08-31T14:24:41;3.60;;;1.30;;
75456;SDS011;64036;48.266;14.192;2023-08-31T14:27:06;3.10;;;1.50;;
75456;SDS011;64036;48.266;14.192;2023-08-31T14:29:32;3.00;;;1.30;;
75456;SDS011;64036;48.266;14.192;2023-08-31T14:31:58;4.40;;;1.60;;
75456;SDS011;64036;48.266;14.192;2023-08-31T14:34:23;5.10;;;1.70;;
75456;SDS011;64036;48.266;14.192;2023-08-31T14:36:50;4.50;;;1.50;;
75456;SDS011;64036;48.266;14.192;2023-08-31T14:39:17;2.60;;;1.50;;
75456;SDS011;64036;48.266;14.192;2023-08-31T14:41:43;2.00;;;1.30;;